createdAt,value
2022-08-04T00:00:25.611Z,2.40
2022-08-04T00:01:25.622Z,2.70
2022-08-04T00:02:25.609Z,2.30
2022-08-04T00:03:25.572Z,2.40
2022-08-04T00:04:25.549Z,2.60
2022-08-04T00:05:25.554Z,2.50
2022-08-04T00:06:25.524Z,2.50
2022-08-04T00:07:42.477Z,2.40
2022-08-04T00:08:25.506Z,2.70
2022-08-04T00:09:25.491Z,2.70
2022-08-04T00:10:25.501Z,2.50
2022-08-04T00:11:25.489Z,2.50
2022-08-04T00:12:29.393Z,2.50
2022-08-04T00:13:25.455Z,2.80
2022-08-04T00:14:25.462Z,3.20
2022-08-04T00:15:25.441Z,2.50
2022-08-04T00:16:25.425Z,2.40
2022-08-04T00:17:25.407Z,2.50
2022-08-04T00:18:25.420Z,2.50
2022-08-04T00:19:25.386Z,2.60
2022-08-04T00:20:25.377Z,2.90
2022-08-04T00:21:25.376Z,2.60
2022-08-04T00:22:25.372Z,2.70
2022-08-04T00:23:25.346Z,2.70
2022-08-04T00:24:25.334Z,2.70
2022-08-04T00:25:25.322Z,2.50
2022-08-04T00:26:26.350Z,2.80
2022-08-04T00:27:25.313Z,2.80
2022-08-04T00:28:25.305Z,2.80
2022-08-04T00:29:25.278Z,2.80
2022-08-04T00:30:25.278Z,3.20
2022-08-04T00:31:33.286Z,2.80
2022-08-04T00:32:33.961Z,2.80
2022-08-04T00:33:25.237Z,2.70
2022-08-04T00:34:25.230Z,2.70
2022-08-04T00:35:25.244Z,3.10
2022-08-04T00:36:25.258Z,2.60
2022-08-04T00:37:25.188Z,2.50
2022-08-04T00:38:25.890Z,2.50
2022-08-04T00:39:25.342Z,2.60
2022-08-04T00:40:25.182Z,2.90
2022-08-04T00:41:25.159Z,3.10
2022-08-04T00:42:25.177Z,3.20
2022-08-04T00:43:25.129Z,2.30
2022-08-04T00:44:25.121Z,2.40
2022-08-04T00:45:25.101Z,2.50
2022-08-04T00:47:34.129Z,2.00
2022-08-04T00:48:35.043Z,2.60
2022-08-04T00:49:35.041Z,3.20
2022-08-04T00:50:35.031Z,2.90
2022-08-04T00:51:35.022Z,2.30
2022-08-04T00:52:34.992Z,2.70
2022-08-04T00:53:34.999Z,2.30
2022-08-04T00:54:34.994Z,2.70
2022-08-04T00:55:34.957Z,2.90
2022-08-04T00:56:34.945Z,2.30
2022-08-04T00:57:35.049Z,3.10
2022-08-04T00:58:34.926Z,2.50
2022-08-04T00:59:34.930Z,3.00
2022-08-04T01:00:34.900Z,2.80
2022-08-04T01:01:34.947Z,2.60
2022-08-04T01:02:34.880Z,2.70
2022-08-04T01:03:34.877Z,2.80
2022-08-04T01:04:34.890Z,2.60
2022-08-04T01:05:38.078Z,3.40
2022-08-04T01:06:34.836Z,2.50
2022-08-04T01:07:34.833Z,2.50
2022-08-04T01:08:34.829Z,2.80
2022-08-04T01:09:34.839Z,3.10
2022-08-04T01:10:34.810Z,2.80
2022-08-04T01:11:56.605Z,2.90
2022-08-04T01:12:34.768Z,2.90
2022-08-04T01:13:34.775Z,2.70
2022-08-04T01:14:34.745Z,2.50
2022-08-04T01:15:57.186Z,2.80
2022-08-04T01:16:34.740Z,2.80
2022-08-04T01:17:34.719Z,3.00
2022-08-04T01:18:34.734Z,3.30
2022-08-04T01:19:34.731Z,3.00
2022-08-04T01:20:34.715Z,3.10
2022-08-04T01:21:34.674Z,2.80
2022-08-04T01:22:34.675Z,2.90
2022-08-04T01:23:34.666Z,2.90
2022-08-04T01:24:34.643Z,3.40
2022-08-04T01:25:35.742Z,2.40
2022-08-04T01:26:43.972Z,2.80
2022-08-04T01:27:34.833Z,3.10
2022-08-04T01:28:34.612Z,3.00
2022-08-04T01:29:46.703Z,2.90
2022-08-04T01:30:34.572Z,3.20
2022-08-04T01:31:34.569Z,3.00
2022-08-04T01:32:34.564Z,2.90
2022-08-04T01:34:03.577Z,3.10
2022-08-04T01:34:34.535Z,2.90
2022-08-04T01:35:47.536Z,2.90
2022-08-04T01:36:34.627Z,3.30
2022-08-04T01:37:34.503Z,3.40
2022-08-04T01:38:34.509Z,3.30
2022-08-04T01:39:34.589Z,2.90
2022-08-04T01:40:34.470Z,3.20
2022-08-04T01:41:34.459Z,3.30
2022-08-04T01:42:34.464Z,3.50
2022-08-04T01:43:34.434Z,3.20
2022-08-04T01:44:34.444Z,3.20
2022-08-04T01:45:34.425Z,3.30
2022-08-04T01:46:34.390Z,3.20
2022-08-04T01:47:34.382Z,3.60
2022-08-04T01:48:34.368Z,3.00
2022-08-04T01:49:40.487Z,2.90
2022-08-04T01:50:34.369Z,3.10
2022-08-04T01:51:34.345Z,3.30
2022-08-04T01:52:34.331Z,3.20
2022-08-04T01:53:34.317Z,3.30
2022-08-04T01:54:34.317Z,2.90
2022-08-04T01:55:51.864Z,3.40
2022-08-04T01:56:34.302Z,3.20
2022-08-04T01:57:45.967Z,3.20
2022-08-04T01:58:34.257Z,3.00
2022-08-04T01:59:34.251Z,3.50
2022-08-04T02:00:34.259Z,3.20
2022-08-04T02:01:34.366Z,3.40
2022-08-04T02:02:34.328Z,3.30
2022-08-04T02:04:21.226Z,3.30
2022-08-04T02:04:34.190Z,3.60
2022-08-04T02:06:03.124Z,3.40
2022-08-04T02:06:34.199Z,3.40
2022-08-04T02:07:34.187Z,3.30
2022-08-04T02:08:34.146Z,3.40
2022-08-04T02:09:34.134Z,3.70
2022-08-04T02:10:34.132Z,3.20
2022-08-04T02:11:34.117Z,3.10
2022-08-04T02:12:34.113Z,3.40
2022-08-04T02:13:34.096Z,3.50
2022-08-04T02:14:34.083Z,3.40
2022-08-04T02:15:34.074Z,3.20
2022-08-04T02:16:34.070Z,3.80
2022-08-04T02:17:34.043Z,3.40
2022-08-04T02:18:34.038Z,3.20
2022-08-04T02:19:34.026Z,3.70
2022-08-04T02:20:34.029Z,3.00
2022-08-04T02:21:42.356Z,3.20
2022-08-04T02:22:33.997Z,3.40
2022-08-04T02:23:33.981Z,3.50
2022-08-04T02:24:33.974Z,2.80
2022-08-04T02:25:34.097Z,3.20
2022-08-04T02:26:33.951Z,3.40
2022-08-04T02:27:59.398Z,3.30
2022-08-04T02:28:33.944Z,3.20
2022-08-04T02:29:33.931Z,3.50
2022-08-04T02:30:33.902Z,3.30
2022-08-04T02:31:33.893Z,3.30
2022-08-04T02:32:33.885Z,3.10
2022-08-04T02:33:33.871Z,3.50
2022-08-04T02:34:33.875Z,3.60
2022-08-04T02:35:33.865Z,3.50
2022-08-04T02:36:33.838Z,3.30
2022-08-04T02:37:33.823Z,3.20
2022-08-04T02:38:33.811Z,2.80
2022-08-04T02:39:41.411Z,3.90
2022-08-04T02:40:33.797Z,3.20
2022-08-04T02:41:33.783Z,3.30
2022-08-04T02:42:33.772Z,3.50
2022-08-04T02:43:50.224Z,3.00
2022-08-04T02:44:33.781Z,3.20
2022-08-04T02:45:33.738Z,3.60
2022-08-04T02:46:33.730Z,3.40
2022-08-04T02:48:42.680Z,4.00
2022-08-04T02:49:43.673Z,3.50
2022-08-04T02:50:43.650Z,3.20
2022-08-04T02:51:43.640Z,3.70
2022-08-04T02:52:43.651Z,3.10
2022-08-04T02:53:43.619Z,3.30
2022-08-04T02:54:43.616Z,3.20
2022-08-04T02:55:50.966Z,3.10
2022-08-04T02:56:43.689Z,3.90
2022-08-04T02:57:43.576Z,3.70
2022-08-04T02:58:43.564Z,3.40
2022-08-04T02:59:43.554Z,3.70
2022-08-04T03:00:43.614Z,3.80
2022-08-04T03:01:56.856Z,3.40
2022-08-04T03:02:43.526Z,3.50
2022-08-04T03:03:43.524Z,3.50
2022-08-04T03:04:43.501Z,3.70
2022-08-04T03:05:51.868Z,3.90
2022-08-04T03:06:44.152Z,3.80
2022-08-04T03:07:43.490Z,3.90
2022-08-04T03:08:43.471Z,3.70
2022-08-04T03:09:43.443Z,3.80
2022-08-04T03:10:43.435Z,3.80
2022-08-04T03:11:43.431Z,3.90
2022-08-04T03:12:43.414Z,3.50
2022-08-04T03:13:43.413Z,4.20
2022-08-04T03:14:43.390Z,4.00
2022-08-04T03:15:43.380Z,3.80
2022-08-04T03:16:43.365Z,3.40
2022-08-04T03:17:52.922Z,4.00
2022-08-04T03:18:43.357Z,3.70
2022-08-04T03:19:43.328Z,3.50
2022-08-04T03:20:43.338Z,4.00
2022-08-04T03:21:43.315Z,3.90
2022-08-04T03:23:06.291Z,3.90
2022-08-04T03:23:43.285Z,3.30
2022-08-04T03:24:43.282Z,3.70
2022-08-04T03:25:56.662Z,3.70
2022-08-04T03:26:43.256Z,3.80
2022-08-04T03:27:43.256Z,3.90
2022-08-04T03:28:43.234Z,4.10
2022-08-04T03:29:43.244Z,3.80
2022-08-04T03:30:43.225Z,3.80
2022-08-04T03:31:43.201Z,3.80
2022-08-04T03:32:43.186Z,3.70
2022-08-04T03:33:43.184Z,4.00
2022-08-04T03:34:43.182Z,4.10
2022-08-04T03:35:43.155Z,3.80
2022-08-04T03:36:43.148Z,3.90
2022-08-04T03:37:43.153Z,3.70
2022-08-04T03:38:43.124Z,4.00
2022-08-04T03:39:43.165Z,3.90
2022-08-04T03:40:43.103Z,3.60
2022-08-04T03:41:54.857Z,4.00
2022-08-04T03:42:43.094Z,3.80
2022-08-04T03:43:57.154Z,4.00
2022-08-04T03:44:43.056Z,4.00
2022-08-04T03:45:43.047Z,4.10
2022-08-04T03:46:43.038Z,4.20
2022-08-04T03:47:44.567Z,4.00
2022-08-04T03:48:43.044Z,4.10
2022-08-04T03:49:43.019Z,4.10
2022-08-04T03:50:43.001Z,3.90
2022-08-04T03:51:42.983Z,4.20
2022-08-04T03:52:42.970Z,3.70
2022-08-04T03:53:42.972Z,3.70
2022-08-04T03:54:42.965Z,3.90
2022-08-04T03:55:42.962Z,4.30
2022-08-04T03:56:42.923Z,4.20
2022-08-04T03:57:42.916Z,4.00
2022-08-04T03:58:42.905Z,3.80
2022-08-04T03:59:48.917Z,4.00
2022-08-04T04:00:42.892Z,4.10
2022-08-04T04:02:02.362Z,4.30
2022-08-04T04:02:42.953Z,4.00
2022-08-04T04:03:42.848Z,4.40
2022-08-04T04:04:42.837Z,3.80
2022-08-04T04:06:00.390Z,4.30
2022-08-04T04:06:44.686Z,4.30
2022-08-04T04:07:47.426Z,4.50
2022-08-04T04:08:43.284Z,4.20
2022-08-04T04:09:58.055Z,4.10
2022-08-04T04:10:42.775Z,3.90
2022-08-04T04:11:57.403Z,4.00
2022-08-04T04:12:42.753Z,4.00
2022-08-04T04:13:42.745Z,4.00
2022-08-04T04:14:42.775Z,3.70
2022-08-04T04:15:44.153Z,3.90
2022-08-04T04:16:42.707Z,3.60
2022-08-04T04:17:42.730Z,3.80
2022-08-04T04:18:42.707Z,4.10
2022-08-04T04:19:42.680Z,3.90
2022-08-04T04:20:42.668Z,3.60
2022-08-04T04:21:42.664Z,3.60
2022-08-04T04:22:42.640Z,4.00
2022-08-04T04:23:42.630Z,3.60
2022-08-04T04:24:42.618Z,3.70
2022-08-04T04:25:42.602Z,3.60
2022-08-04T04:26:42.615Z,3.80
2022-08-04T04:27:42.581Z,3.80
2022-08-04T04:28:45.167Z,4.10
2022-08-04T04:29:42.564Z,3.70
2022-08-04T04:30:42.552Z,3.90
2022-08-04T04:31:42.559Z,3.50
2022-08-04T04:32:42.531Z,3.80
2022-08-04T04:33:42.542Z,3.70
2022-08-04T04:34:46.112Z,3.40
2022-08-04T04:35:43.179Z,3.80
2022-08-04T04:36:42.486Z,4.10
2022-08-04T04:37:48.892Z,3.50
2022-08-04T04:38:42.474Z,3.80
2022-08-04T04:39:42.493Z,3.40
2022-08-04T04:40:42.457Z,3.70
2022-08-04T04:41:42.443Z,3.90
2022-08-04T04:42:42.421Z,3.80
2022-08-04T04:43:51.580Z,3.80
2022-08-04T04:44:42.399Z,3.40
2022-08-04T04:45:42.401Z,4.00
2022-08-04T04:46:42.371Z,3.80
2022-08-04T04:47:43.196Z,3.40
2022-08-04T04:49:51.317Z,3.80
2022-08-04T04:50:52.319Z,3.50
2022-08-04T04:51:52.294Z,3.60
2022-08-04T04:52:52.299Z,3.90
2022-08-04T04:54:00.519Z,3.90
2022-08-04T04:54:52.280Z,3.80
2022-08-04T04:55:52.253Z,3.90
2022-08-04T04:56:52.244Z,3.70
2022-08-04T04:57:54.596Z,3.80
2022-08-04T04:58:52.243Z,3.10
2022-08-04T04:59:52.223Z,3.80
2022-08-04T05:00:52.199Z,3.80
2022-08-04T05:01:52.186Z,3.30
2022-08-04T05:02:52.182Z,3.50
2022-08-04T05:03:52.159Z,3.60
2022-08-04T05:04:52.152Z,3.70
2022-08-04T05:05:52.137Z,3.80
2022-08-04T05:06:54.529Z,3.50
2022-08-04T05:07:52.136Z,3.20
2022-08-04T05:08:54.376Z,3.60
2022-08-04T05:09:52.096Z,3.20
2022-08-04T05:10:52.084Z,3.90
2022-08-04T05:11:52.075Z,3.70
2022-08-04T05:14:32.648Z,3.60
2022-08-04T05:14:36.655Z,3.70
2022-08-04T05:14:52.049Z,3.30
2022-08-04T05:15:52.029Z,3.50
2022-08-04T05:16:52.017Z,3.80
2022-08-04T05:17:52.972Z,4.00
2022-08-04T05:18:51.995Z,3.70
2022-08-04T05:19:52.002Z,3.60
2022-08-04T05:20:51.971Z,3.20
2022-08-04T05:21:51.976Z,3.90
2022-08-04T05:22:51.953Z,3.80
2022-08-04T05:23:51.950Z,3.50
2022-08-04T05:24:51.930Z,3.60
2022-08-04T05:25:58.446Z,3.80
2022-08-04T05:26:51.923Z,4.10
2022-08-04T05:27:51.898Z,3.80
2022-08-04T05:28:51.912Z,3.80
2022-08-04T05:29:51.871Z,3.80
2022-08-04T05:30:51.868Z,3.80
2022-08-04T05:31:51.864Z,3.50
2022-08-04T05:32:51.836Z,3.60
2022-08-04T05:33:51.852Z,3.90
2022-08-04T05:34:51.818Z,3.60
2022-08-04T05:36:17.056Z,3.50
2022-08-04T05:36:51.796Z,3.80
2022-08-04T05:38:01.764Z,3.60
2022-08-04T05:38:51.869Z,3.90
2022-08-04T05:39:51.771Z,3.40
2022-08-04T05:40:51.750Z,3.30
2022-08-04T05:41:55.315Z,3.90
2022-08-04T05:42:51.730Z,3.60
2022-08-04T05:43:51.730Z,3.50
2022-08-04T05:44:51.711Z,3.50
2022-08-04T05:45:51.698Z,3.80
2022-08-04T05:46:53.736Z,3.90
2022-08-04T05:47:51.685Z,3.40
2022-08-04T05:48:51.678Z,3.90
2022-08-04T05:50:01.364Z,4.00
2022-08-04T05:50:51.648Z,3.70
2022-08-04T05:51:51.632Z,3.80
2022-08-04T05:52:51.621Z,4.00
2022-08-04T05:53:51.627Z,3.90
2022-08-04T05:54:51.686Z,4.40
2022-08-04T05:55:58.899Z,4.30
2022-08-04T05:56:51.585Z,3.60
2022-08-04T05:57:55.573Z,4.00
2022-08-04T05:58:51.569Z,3.90
2022-08-04T05:59:51.965Z,3.90
2022-08-04T06:00:52.255Z,3.90
2022-08-04T06:03:00.061Z,3.50
2022-08-04T06:04:01.008Z,3.90
2022-08-04T06:05:00.952Z,4.00
2022-08-04T06:06:00.953Z,3.60
2022-08-04T06:07:00.930Z,3.90
2022-08-04T06:08:12.604Z,4.50
2022-08-04T06:09:02.052Z,3.90
2022-08-04T06:10:00.902Z,3.90
2022-08-04T06:11:00.881Z,3.70
2022-08-04T06:12:03.881Z,3.40
2022-08-04T06:13:00.873Z,3.70
2022-08-04T06:14:00.867Z,3.50
2022-08-04T06:15:00.840Z,3.60
2022-08-04T06:16:01.360Z,3.20
2022-08-04T06:17:00.818Z,3.40
2022-08-04T06:18:33.856Z,3.10
2022-08-04T06:20:01.047Z,3.10
2022-08-04T06:20:20.150Z,3.40
2022-08-04T06:21:00.771Z,2.80
2022-08-04T06:22:00.766Z,3.20
2022-08-04T06:23:00.749Z,3.10
2022-08-04T06:24:04.250Z,3.40
2022-08-04T06:25:00.749Z,2.90
2022-08-04T06:26:00.720Z,2.80
2022-08-04T06:27:00.750Z,3.10
2022-08-04T06:28:00.696Z,3.10
2022-08-04T06:29:00.721Z,3.20
2022-08-04T06:30:00.714Z,3.00
2022-08-04T06:31:01.460Z,3.80
2022-08-04T06:32:31.730Z,6.30
2022-08-04T06:33:03.382Z,4.70
2022-08-04T06:34:00.632Z,3.80
2022-08-04T06:35:00.630Z,2.90
2022-08-04T06:36:00.625Z,3.20
2022-08-04T06:37:00.611Z,3.00
2022-08-04T06:38:01.480Z,3.00
2022-08-04T06:39:00.677Z,3.00
2022-08-04T06:40:00.592Z,2.90
2022-08-04T06:41:00.570Z,3.30
2022-08-04T06:42:19.313Z,2.60
2022-08-04T06:43:00.553Z,2.90
2022-08-04T06:44:01.465Z,3.10
2022-08-04T06:45:00.525Z,3.50
2022-08-04T06:46:00.517Z,2.70
2022-08-04T06:47:00.497Z,2.80
2022-08-04T06:48:00.491Z,3.10
2022-08-04T06:49:00.479Z,3.10
2022-08-04T06:51:25.532Z,2.90
2022-08-04T06:51:31.389Z,3.10
2022-08-04T06:52:00.451Z,3.50
2022-08-04T06:53:00.425Z,2.70
2022-08-04T06:54:00.417Z,2.90
2022-08-04T06:55:00.405Z,2.90
2022-08-04T06:56:00.545Z,2.70
2022-08-04T06:57:00.377Z,2.90
2022-08-04T06:58:03.111Z,3.00
2022-08-04T06:59:00.370Z,2.70
2022-08-04T07:00:00.350Z,2.70
2022-08-04T07:01:00.357Z,2.80
2022-08-04T07:02:00.441Z,2.90
2022-08-04T07:05:52.874Z,2.90
2022-08-04T07:06:53.863Z,3.50
2022-08-04T07:07:57.419Z,2.50
2022-08-04T07:08:53.846Z,2.60
2022-08-04T07:09:53.901Z,2.60
2022-08-04T07:12:02.248Z,2.50
2022-08-04T07:13:03.261Z,2.60
2022-08-04T07:14:03.255Z,2.70
2022-08-04T07:15:03.211Z,2.60
2022-08-04T07:16:03.213Z,2.70
2022-08-04T07:17:03.193Z,2.80
2022-08-04T07:18:03.177Z,2.80
2022-08-04T07:19:10.590Z,2.50
2022-08-04T07:20:03.161Z,2.50
2022-08-04T07:21:03.149Z,2.50
2022-08-04T07:22:24.329Z,2.40
2022-08-04T07:23:03.149Z,2.30
2022-08-04T07:24:03.113Z,2.50
2022-08-04T07:25:03.102Z,2.40
2022-08-04T07:26:12.960Z,2.70
2022-08-04T07:27:03.089Z,2.50
2022-08-04T07:28:03.075Z,2.40
2022-08-04T07:29:03.093Z,2.70
2022-08-04T07:30:03.050Z,2.60
2022-08-04T07:31:03.049Z,2.60
2022-08-04T07:32:03.063Z,2.50
2022-08-04T07:33:03.024Z,2.50
2022-08-04T07:34:21.165Z,2.30
2022-08-04T07:35:03.000Z,2.70
2022-08-04T07:36:05.661Z,2.70
2022-08-04T07:37:02.974Z,2.70
2022-08-04T07:38:02.986Z,2.60
2022-08-04T07:39:03.070Z,2.80
2022-08-04T07:40:03.027Z,2.20
2022-08-04T07:41:03.097Z,3.00
2022-08-04T07:42:02.928Z,2.40
2022-08-04T07:43:02.935Z,2.50
2022-08-04T07:44:02.918Z,2.40
2022-08-04T07:45:02.890Z,2.80
2022-08-04T07:46:02.882Z,2.80
2022-08-04T07:47:02.904Z,2.50
2022-08-04T07:48:05.108Z,2.40
2022-08-04T07:49:02.865Z,2.70
2022-08-04T07:50:02.864Z,2.60
2022-08-04T07:51:02.832Z,2.40
2022-08-04T07:52:02.830Z,2.60
2022-08-04T07:53:53.935Z,4.90
2022-08-04T07:54:02.825Z,2.20
2022-08-04T07:55:02.790Z,2.50
2022-08-04T07:56:02.791Z,2.30
2022-08-04T07:57:02.781Z,2.70
2022-08-04T07:58:03.245Z,4.00
2022-08-04T07:59:02.750Z,3.70
2022-08-04T08:00:02.730Z,2.50
2022-08-04T08:01:02.749Z,2.40
2022-08-04T08:02:02.719Z,3.00
2022-08-04T08:03:02.748Z,2.70
2022-08-04T08:04:02.803Z,2.70
2022-08-04T08:05:02.675Z,2.50
2022-08-04T08:06:17.248Z,2.50
2022-08-04T08:07:02.675Z,2.70
2022-08-04T08:08:02.655Z,2.60
2022-08-04T08:09:13.526Z,2.50
2022-08-04T08:10:02.615Z,2.50
2022-08-04T08:11:02.604Z,2.20
2022-08-04T08:12:36.223Z,2.50
2022-08-04T08:13:02.590Z,2.30
2022-08-04T08:14:02.589Z,2.40
2022-08-04T08:15:02.562Z,2.20
2022-08-04T08:16:02.555Z,2.50
2022-08-04T08:17:02.960Z,2.50
2022-08-04T08:18:02.548Z,2.30
2022-08-04T08:19:02.523Z,2.50
2022-08-04T08:20:02.523Z,2.00
2022-08-04T08:21:02.528Z,2.20
2022-08-04T08:22:02.547Z,2.40
2022-08-04T08:23:02.484Z,2.20
2022-08-04T08:24:02.500Z,2.40
2022-08-04T08:25:02.468Z,2.50
2022-08-04T08:26:02.450Z,2.50
2022-08-04T08:27:02.446Z,2.40
2022-08-04T08:28:02.440Z,2.20
2022-08-04T08:29:02.422Z,2.70
2022-08-04T08:30:02.416Z,2.50
2022-08-04T08:31:02.411Z,2.40
2022-08-04T08:32:07.769Z,2.20
2022-08-04T08:33:02.377Z,2.40
2022-08-04T08:34:02.370Z,2.40
2022-08-04T08:35:02.381Z,2.20
2022-08-04T08:36:02.358Z,2.40
2022-08-04T08:37:02.335Z,2.10
2022-08-04T08:38:02.341Z,2.50
2022-08-04T08:39:02.428Z,2.30
2022-08-04T08:40:02.302Z,2.80
2022-08-04T08:41:02.285Z,2.50
2022-08-04T08:42:02.292Z,2.60
2022-08-04T08:43:59.911Z,2.80
2022-08-04T08:44:06.558Z,2.50
2022-08-04T08:45:02.250Z,2.60
2022-08-04T08:46:02.242Z,2.10
2022-08-04T08:47:02.246Z,2.20
2022-08-04T08:48:05.816Z,2.40
2022-08-04T08:49:02.201Z,2.40
2022-08-04T08:50:04.406Z,2.50
2022-08-04T08:51:02.198Z,2.40
2022-08-04T08:52:02.177Z,2.50
2022-08-04T08:53:03.163Z,2.60
2022-08-04T08:54:02.151Z,2.60
2022-08-04T08:55:02.174Z,2.40
2022-08-04T08:56:02.129Z,2.20
2022-08-04T08:57:02.119Z,2.50
2022-08-04T08:58:02.114Z,2.60
2022-08-04T08:59:02.123Z,2.60
2022-08-04T09:00:02.081Z,2.70
2022-08-04T09:01:02.172Z,2.70
2022-08-04T09:02:02.223Z,2.80
2022-08-04T09:03:04.078Z,2.50
2022-08-04T09:04:02.056Z,2.50
2022-08-04T09:05:02.047Z,2.90
2022-08-04T09:06:02.023Z,2.60
2022-08-04T09:07:02.024Z,2.70
2022-08-04T09:08:02.003Z,2.70
2022-08-04T09:09:01.992Z,2.80
2022-08-04T09:10:01.991Z,2.30
2022-08-04T09:11:01.966Z,2.40
2022-08-04T09:13:10.930Z,2.30
2022-08-04T09:14:11.909Z,2.60
2022-08-04T09:15:11.889Z,2.80
2022-08-04T09:16:11.873Z,2.40
2022-08-04T09:17:11.867Z,2.40
2022-08-04T09:18:11.875Z,2.10
2022-08-04T09:19:17.567Z,2.30
2022-08-04T09:20:11.847Z,2.30
2022-08-04T09:21:11.827Z,2.50
2022-08-04T09:22:12.847Z,2.20
2022-08-04T09:23:11.827Z,2.20
2022-08-04T09:24:36.767Z,2.40
2022-08-04T09:25:11.815Z,2.50
2022-08-04T09:26:11.799Z,2.50
2022-08-04T09:27:11.769Z,2.20
2022-08-04T09:28:11.767Z,2.50
2022-08-04T09:29:11.803Z,2.40
2022-08-04T09:30:11.780Z,2.50
2022-08-04T09:31:11.731Z,2.20
2022-08-04T09:32:11.718Z,2.40
2022-08-04T09:33:11.737Z,2.50
2022-08-04T09:34:11.717Z,2.50
2022-08-04T09:35:15.340Z,2.50
2022-08-04T09:36:11.669Z,2.40
2022-08-04T09:37:11.668Z,2.20
2022-08-04T09:38:11.662Z,2.30
2022-08-04T09:39:11.683Z,2.20
2022-08-04T09:40:12.406Z,2.00
2022-08-04T09:41:39.468Z,2.00
2022-08-04T09:42:11.612Z,2.10
2022-08-04T09:43:11.658Z,2.30
2022-08-04T09:44:49.798Z,2.10
2022-08-04T09:45:15.571Z,2.50
2022-08-04T09:46:11.563Z,2.10
2022-08-04T09:47:12.616Z,2.10
2022-08-04T09:48:11.567Z,2.00
2022-08-04T09:49:11.534Z,2.10
2022-08-04T09:50:11.538Z,2.50
2022-08-04T09:51:11.531Z,2.10
2022-08-04T09:52:11.513Z,2.00
2022-08-04T09:53:11.494Z,2.10
2022-08-04T09:54:11.536Z,2.10
2022-08-04T09:55:11.495Z,1.80
2022-08-04T09:56:11.469Z,2.10
2022-08-04T09:57:11.488Z,2.00
2022-08-04T09:58:11.448Z,2.10
2022-08-04T09:59:11.452Z,2.10
2022-08-04T10:00:11.436Z,2.40
2022-08-04T10:01:11.438Z,2.20
2022-08-04T10:02:11.444Z,1.80
2022-08-04T10:03:14.756Z,2.30
2022-08-04T10:04:11.395Z,2.50
2022-08-04T10:05:11.381Z,2.30
2022-08-04T10:06:11.390Z,2.30
2022-08-04T10:07:11.356Z,2.40
2022-08-04T10:08:16.635Z,2.30
2022-08-04T10:09:11.328Z,2.10
2022-08-04T10:10:11.319Z,2.20
2022-08-04T10:11:11.309Z,2.00
2022-08-04T10:12:11.300Z,1.90
2022-08-04T10:13:11.305Z,2.10
2022-08-04T10:14:11.279Z,2.20
2022-08-04T10:15:11.273Z,2.10
2022-08-04T10:16:11.261Z,2.10
2022-08-04T10:17:11.263Z,2.10
2022-08-04T10:18:11.245Z,2.10
2022-08-04T10:19:11.227Z,2.00
2022-08-04T10:20:11.223Z,2.30
2022-08-04T10:21:15.496Z,1.90
2022-08-04T10:22:28.302Z,2.00
2022-08-04T10:23:12.366Z,1.90
2022-08-04T10:24:11.214Z,1.90
2022-08-04T10:25:40.457Z,2.10
2022-08-04T10:26:11.167Z,1.90
2022-08-04T10:27:11.163Z,2.20
2022-08-04T10:28:11.138Z,2.00
2022-08-04T10:29:11.183Z,1.90
2022-08-04T10:30:11.121Z,1.90
2022-08-04T10:31:11.121Z,1.90
2022-08-04T10:32:11.099Z,1.80
2022-08-04T10:33:11.089Z,1.90
2022-08-04T10:34:11.085Z,1.70
2022-08-04T10:35:11.091Z,1.90
2022-08-04T10:36:11.099Z,2.70
2022-08-04T10:37:11.047Z,1.90
2022-08-04T10:38:11.043Z,1.90
2022-08-04T10:39:13.734Z,1.70
2022-08-04T10:40:11.149Z,1.90
2022-08-04T10:41:11.031Z,2.00
2022-08-04T10:42:11.000Z,1.80
2022-08-04T10:43:20.727Z,1.90
2022-08-04T10:44:10.983Z,2.00
2022-08-04T10:45:10.971Z,1.90
2022-08-04T10:46:10.958Z,1.80
2022-08-04T10:47:10.945Z,1.90
2022-08-04T10:48:10.956Z,2.00
2022-08-04T10:49:10.928Z,2.00
2022-08-04T10:50:10.920Z,1.90
2022-08-04T10:51:11.039Z,1.90
2022-08-04T10:52:10.895Z,1.80
2022-08-04T10:53:10.891Z,2.10
2022-08-04T10:54:10.915Z,2.00
2022-08-04T10:55:10.862Z,1.70
2022-08-04T10:56:10.871Z,1.70
2022-08-04T10:57:10.845Z,1.90
2022-08-04T10:58:10.834Z,2.00
2022-08-04T10:59:10.824Z,1.90
2022-08-04T11:00:10.838Z,1.70
2022-08-04T11:01:10.857Z,1.80
2022-08-04T11:02:14.933Z,1.70
2022-08-04T11:03:10.861Z,1.90
2022-08-04T11:04:10.785Z,1.80
2022-08-04T11:05:10.779Z,1.70
2022-08-04T11:06:10.764Z,1.80
2022-08-04T11:07:10.749Z,2.10
2022-08-04T11:08:12.898Z,1.80
2022-08-04T11:09:13.981Z,1.80
2022-08-04T11:10:10.763Z,2.00
2022-08-04T11:11:10.719Z,2.00
2022-08-04T11:12:10.712Z,1.90
2022-08-04T11:14:30.622Z,2.40
2022-08-04T11:15:31.607Z,1.80
2022-08-04T11:16:31.584Z,1.80
2022-08-04T11:17:31.573Z,2.10
2022-08-04T11:18:31.557Z,1.90
2022-08-04T11:19:45.185Z,2.00
2022-08-04T11:20:35.239Z,1.80
2022-08-04T11:21:31.549Z,2.10
2022-08-04T11:22:31.527Z,1.60
2022-08-04T11:23:31.516Z,1.60
2022-08-04T11:24:31.517Z,1.70
2022-08-04T11:25:31.533Z,1.80
2022-08-04T11:26:31.475Z,2.00
2022-08-04T11:27:31.478Z,1.80
2022-08-04T11:28:32.743Z,2.20
2022-08-04T11:29:31.463Z,1.60
2022-08-04T11:30:31.438Z,1.90
2022-08-04T11:31:31.462Z,1.70
2022-08-04T11:32:31.460Z,1.80
2022-08-04T11:33:31.436Z,1.70
2022-08-04T11:34:31.395Z,2.00
2022-08-04T11:35:31.407Z,1.80
2022-08-04T11:36:31.404Z,1.70
2022-08-04T11:37:31.373Z,1.70
2022-08-04T11:38:32.426Z,1.70
2022-08-04T11:39:33.065Z,1.70
2022-08-04T11:40:31.350Z,1.90
2022-08-04T11:41:31.403Z,1.80
2022-08-04T11:42:31.321Z,1.80
2022-08-04T11:44:01.235Z,1.60
2022-08-04T11:44:31.306Z,1.70
2022-08-04T11:45:31.333Z,1.80
2022-08-04T11:46:31.284Z,1.80
2022-08-04T11:47:31.280Z,1.50
2022-08-04T11:48:31.265Z,1.50
2022-08-04T11:49:31.249Z,1.90
2022-08-04T11:50:31.251Z,1.60
2022-08-04T11:51:31.261Z,1.50
2022-08-04T11:52:31.224Z,1.40
2022-08-04T11:53:36.633Z,1.50
2022-08-04T11:54:31.228Z,1.30
2022-08-04T11:55:31.211Z,1.40
2022-08-04T11:56:36.258Z,1.40
2022-08-04T11:57:35.786Z,1.40
2022-08-04T11:58:31.172Z,1.30
2022-08-04T11:59:31.153Z,1.40
2022-08-04T12:00:31.143Z,1.40
2022-08-04T12:01:31.125Z,1.50
2022-08-04T12:02:31.203Z,1.50
2022-08-04T12:03:31.142Z,1.90
2022-08-04T12:04:31.123Z,1.50
2022-08-04T12:05:36.504Z,1.70
2022-08-04T12:06:31.088Z,1.30
2022-08-04T12:07:32.179Z,1.70
2022-08-04T12:08:31.063Z,1.40
2022-08-04T12:09:31.061Z,1.50
2022-08-04T12:10:41.593Z,1.70
2022-08-04T12:11:31.043Z,1.50
2022-08-04T12:12:31.045Z,1.60
2022-08-04T12:13:31.007Z,1.50
2022-08-04T12:14:31.018Z,1.70
2022-08-04T12:15:31.004Z,1.60
2022-08-04T12:16:31.025Z,1.50
2022-08-04T12:17:33.678Z,1.60
2022-08-04T12:18:30.995Z,1.50
2022-08-04T12:19:43.777Z,1.60
2022-08-04T12:20:38.449Z,1.60
2022-08-04T12:21:30.933Z,1.80
2022-08-04T12:22:31.406Z,1.50
2022-08-04T12:23:30.923Z,1.30
2022-08-04T12:24:30.894Z,1.40
2022-08-04T12:25:30.911Z,1.40
2022-08-04T12:26:30.885Z,1.30
2022-08-04T12:27:31.010Z,1.40
2022-08-04T12:28:41.617Z,1.70
2022-08-04T12:29:30.851Z,1.40
2022-08-04T12:30:59.923Z,1.30
2022-08-04T12:31:30.823Z,1.40
2022-08-04T12:32:30.831Z,1.60
2022-08-04T12:34:03.021Z,1.40
2022-08-04T12:34:30.799Z,1.50
2022-08-04T12:35:30.792Z,1.40
2022-08-04T12:36:30.772Z,1.30
2022-08-04T12:37:30.764Z,1.50
2022-08-04T12:38:30.796Z,1.20
2022-08-04T12:39:30.826Z,1.30
2022-08-04T12:40:31.412Z,1.30
2022-08-04T12:41:30.755Z,1.30
2022-08-04T12:42:30.717Z,1.30
2022-08-04T12:43:30.726Z,1.40
2022-08-04T12:44:36.283Z,1.30
2022-08-04T12:45:30.977Z,1.50
2022-08-04T12:46:30.679Z,1.20
2022-08-04T12:47:30.661Z,1.20
2022-08-04T12:48:30.651Z,1.40
2022-08-04T12:49:30.650Z,1.40
2022-08-04T12:50:30.657Z,1.40
2022-08-04T12:52:06.050Z,1.40
2022-08-04T12:53:31.783Z,1.10
2022-08-04T12:54:30.595Z,1.30
2022-08-04T12:55:30.599Z,1.20
2022-08-04T12:56:30.595Z,1.40
2022-08-04T12:57:30.568Z,1.50
2022-08-04T12:58:42.632Z,1.40
2022-08-04T12:59:30.551Z,1.40
2022-08-04T13:00:34.188Z,1.40
2022-08-04T13:02:07.976Z,1.40
2022-08-04T13:02:30.593Z,1.20
2022-08-04T13:03:30.532Z,1.50
2022-08-04T13:04:30.504Z,1.50
2022-08-04T13:05:30.531Z,1.60
2022-08-04T13:06:30.493Z,1.40
2022-08-04T13:07:30.477Z,1.30
2022-08-04T13:08:32.502Z,1.60
2022-08-04T13:09:30.445Z,1.50
2022-08-04T13:10:31.046Z,1.50
2022-08-04T13:11:30.436Z,1.50
2022-08-04T13:12:32.629Z,1.50
2022-08-04T13:13:30.423Z,1.80
2022-08-04T13:15:47.534Z,2.00
2022-08-04T13:16:40.332Z,1.80
2022-08-04T13:17:40.341Z,2.00
2022-08-04T13:18:40.324Z,2.20
2022-08-04T13:19:41.543Z,1.90
2022-08-04T13:20:40.294Z,2.00
2022-08-04T13:21:50.048Z,2.00
2022-08-04T13:22:46.356Z,2.30
2022-08-04T13:24:09.446Z,2.30
2022-08-04T13:25:18.204Z,1.90
2022-08-04T13:26:42.868Z,2.10
2022-08-04T13:26:53.598Z,2.20
2022-08-04T13:27:42.870Z,2.10
2022-08-04T13:28:40.214Z,2.20
2022-08-04T13:29:59.838Z,2.10
2022-08-04T13:30:40.194Z,2.20
2022-08-04T13:31:40.186Z,2.40